sensor_id;sensor_type;location;lat;lon;timestamp;P1;durP1;ratioP1;P2;durP2;ratioP2
64387;SDS011;50709;52.648;4.764;2022-07-01T00:01:42;4.20;;;2.17;;
64387;SDS011;50709;52.648;4.764;2022-07-01T00:04:09;3.63;;;2.20;;
64387;SDS011;50709;52.648;4.764;2022-07-01T00:06:34;3.88;;;2.03;;
64387;SDS011;50709;52.648;4.764;2022-07-01T00:09:00;3.42;;;2.03;;
64387;SDS011;50709;52.648;4.764;2022-07-01T00:11:25;3.28;;;2.00;;
64387;SDS011;50709;52.648;4.764;2022-07-01T00:13:50;4.15;;;2.33;;
64387;SDS011;50709;52.648;4.764;2022-07-01T00:16:16;4.10;;;2.25;;
64387;SDS011;50709;52.648;4.764;2022-07-01T00:18:41;3.35;;;2.10;;
64387;SDS011;50709;52.648;4.764;2022-07-01T00:21:07;6.68;;;2.35;;
64387;SDS011;50709;52.648;4.764;2022-07-01T00:23:32;4.90;;;2.20;;
64387;SDS011;50709;52.648;4.764;2022-07-01T00:25:58;4.07;;;2.10;;
64387;SDS011;50709;52.648;4.764;2022-07-01T00:28:23;3.83;;;2.13;;
64387;SDS011;50709;52.648;4.764;2022-07-01T00:30:49;6.18;;;2.70;;
64387;SDS011;50709;52.648;4.764;2022-07-01T00:33:14;7.20;;;2.63;;
64387;SDS011;50709;52.648;4.764;2022-07-01T00:35:40;5.40;;;2.67;;
64387;SDS011;50709;52.648;4.764;2022-07-01T00:38:05;6.75;;;2.80;;
64387;SDS011;50709;52.648;4.764;2022-07-01T00:40:30;5.60;;;2.58;;
64387;SDS011;50709;52.648;4.764;2022-07-01T00:42:55;6.18;;;2.90;;
64387;SDS011;50709;52.648;4.764;2022-07-01T00:45:21;4.55;;;2.67;;
64387;SDS011;50709;52.648;4.764;2022-07-01T00:47:46;4.47;;;2.45;;
64387;SDS011;50709;52.648;4.764;2022-07-01T00:50:13;6.80;;;2.97;;
64387;SDS011;50709;52.648;4.764;2022-07-01T00:52:40;8.18;;;3.00;;
64387;SDS011;50709;52.648;4.764;2022-07-01T00:55:07;7.35;;;3.00;;
64387;SDS011;50709;52.648;4.764;2022-07-01T00:57:34;6.47;;;2.50;;
64387;SDS011;50709;52.648;4.764;2022-07-01T01:00:02;5.97;;;2.60;;
64387;SDS011;50709;52.648;4.764;2022-07-01T01:02:29;5.25;;;2.47;;
64387;SDS011;50709;52.648;4.764;2022-07-01T01:04:55;6.68;;;2.60;;
64387;SDS011;50709;52.648;4.764;2022-07-01T01:07:21;6.63;;;3.00;;
64387;SDS011;50709;52.648;4.764;2022-07-01T01:09:46;5.70;;;3.13;;
64387;SDS011;50709;52.648;4.764;2022-07-01T01:12:12;6.05;;;3.05;;
64387;SDS011;50709;52.648;4.764;2022-07-01T01:14:45;5.85;;;3.10;;
64387;SDS011;50709;52.648;4.764;2022-07-01T01:19:37;7.03;;;3.30;;
64387;SDS011;50709;52.648;4.764;2022-07-01T01:22:03;6.93;;;3.08;;
64387;SDS011;50709;52.648;4.764;2022-07-01T01:24:28;4.40;;;2.97;;
64387;SDS011;50709;52.648;4.764;2022-07-01T01:26:53;6.05;;;3.50;;
64387;SDS011;50709;52.648;4.764;2022-07-01T01:29:19;6.00;;;3.10;;
64387;SDS011;50709;52.648;4.764;2022-07-01T01:31:44;7.88;;;3.75;;
64387;SDS011;50709;52.648;4.764;2022-07-01T01:34:09;4.97;;;3.10;;
64387;SDS011;50709;52.648;4.764;2022-07-01T01:36:35;6.28;;;3.70;;
64387;SDS011;50709;52.648;4.764;2022-07-01T01:39:01;6.28;;;3.10;;
64387;SDS011;50709;52.648;4.764;2022-07-01T01:41:44;4.88;;;3.35;;
64387;SDS011;50709;52.648;4.764;2022-07-01T01:44:10;6.05;;;3.58;;
64387;SDS011;50709;52.648;4.764;2022-07-01T01:46:36;6.32;;;3.55;;
64387;SDS011;50709;52.648;4.764;2022-07-01T01:49:03;6.43;;;3.50;;
64387;SDS011;50709;52.648;4.764;2022-07-01T01:51:29;7.00;;;3.38;;
64387;SDS011;50709;52.648;4.764;2022-07-01T01:53:55;5.07;;;3.15;;
64387;SDS011;50709;52.648;4.764;2022-07-01T01:56:20;6.57;;;2.90;;
64387;SDS011;50709;52.648;4.764;2022-07-01T01:58:46;5.90;;;3.42;;
64387;SDS011;50709;52.648;4.764;2022-07-01T02:01:12;5.00;;;2.95;;
64387;SDS011;50709;52.648;4.764;2022-07-01T02:03:38;5.55;;;2.90;;
64387;SDS011;50709;52.648;4.764;2022-07-01T02:06:05;8.40;;;3.20;;
64387;SDS011;50709;52.648;4.764;2022-07-01T02:08:31;5.30;;;2.90;;
64387;SDS011;50709;52.648;4.764;2022-07-01T02:10:57;6.15;;;3.15;;
64387;SDS011;50709;52.648;4.764;2022-07-01T02:13:24;5.60;;;3.20;;
64387;SDS011;50709;52.648;4.764;2022-07-01T02:15:50;5.70;;;3.33;;
64387;SDS011;50709;52.648;4.764;2022-07-01T02:18:15;6.53;;;2.88;;
64387;SDS011;50709;52.648;4.764;2022-07-01T02:20:42;6.60;;;3.33;;
64387;SDS011;50709;52.648;4.764;2022-07-01T02:23:07;5.53;;;3.45;;
64387;SDS011;50709;52.648;4.764;2022-07-01T02:25:33;8.80;;;3.63;;
64387;SDS011;50709;52.648;4.764;2022-07-01T02:27:59;8.73;;;3.75;;
64387;SDS011;50709;52.648;4.764;2022-07-01T02:30:25;7.25;;;3.60;;
64387;SDS011;50709;52.648;4.764;2022-07-01T02:32:51;5.57;;;3.60;;
64387;SDS011;50709;52.648;4.764;2022-07-01T02:35:16;6.20;;;3.45;;
64387;SDS011;50709;52.648;4.764;2022-07-01T02:37:41;7.00;;;3.67;;
64387;SDS011;50709;52.648;4.764;2022-07-01T02:40:07;7.00;;;3.97;;
64387;SDS011;50709;52.648;4.764;2022-07-01T02:42:34;11.52;;;4.45;;
64387;SDS011;50709;52.648;4.764;2022-07-01T02:45:03;10.73;;;4.82;;
64387;SDS011;50709;52.648;4.764;2022-07-01T02:47:35;9.80;;;5.32;;
64387;SDS011;50709;52.648;4.764;2022-07-01T02:50:03;11.02;;;5.32;;
64387;SDS011;50709;52.648;4.764;2022-07-01T02:52:29;11.63;;;6.07;;
64387;SDS011;50709;52.648;4.764;2022-07-01T02:54:54;13.18;;;6.05;;
64387;SDS011;50709;52.648;4.764;2022-07-01T02:57:20;12.38;;;5.93;;
64387;SDS011;50709;52.648;4.764;2022-07-01T02:59:46;11.23;;;5.90;;
64387;SDS011;50709;52.648;4.764;2022-07-01T03:02:11;11.18;;;5.22;;
64387;SDS011;50709;52.648;4.764;2022-07-01T03:04:36;9.45;;;5.28;;
64387;SDS011;50709;52.648;4.764;2022-07-01T03:07:02;8.50;;;5.03;;
64387;SDS011;50709;52.648;4.764;2022-07-01T03:09:27;10.48;;;5.32;;
64387;SDS011;50709;52.648;4.764;2022-07-01T03:11:53;10.20;;;4.68;;
64387;SDS011;50709;52.648;4.764;2022-07-01T03:14:18;9.65;;;3.55;;
64387;SDS011;50709;52.648;4.764;2022-07-01T03:16:45;7.40;;;3.95;;
64387;SDS011;50709;52.648;4.764;2022-07-01T03:19:14;9.50;;;4.63;;
64387;SDS011;50709;52.648;4.764;2022-07-01T03:21:39;14.13;;;5.53;;
64387;SDS011;50709;52.648;4.764;2022-07-01T03:24:06;10.60;;;6.07;;
64387;SDS011;50709;52.648;4.764;2022-07-01T03:26:31;11.50;;;6.40;;
64387;SDS011;50709;52.648;4.764;2022-07-01T03:28:56;11.32;;;6.40;;
64387;SDS011;50709;52.648;4.764;2022-07-01T03:31:22;9.38;;;6.63;;
64387;SDS011;50709;52.648;4.764;2022-07-01T03:33:47;10.90;;;6.40;;
64387;SDS011;50709;52.648;4.764;2022-07-01T03:36:13;7.68;;;6.38;;
64387;SDS011;50709;52.648;4.764;2022-07-01T03:38:38;14.55;;;7.22;;
64387;SDS011;50709;52.648;4.764;2022-07-01T03:41:03;12.52;;;5.68;;
64387;SDS011;50709;52.648;4.764;2022-07-01T03:43:29;9.20;;;5.80;;
64387;SDS011;50709;52.648;4.764;2022-07-01T03:45:54;13.13;;;6.72;;
64387;SDS011;50709;52.648;4.764;2022-07-01T03:48:20;13.88;;;6.55;;
64387;SDS011;50709;52.648;4.764;2022-07-01T03:50:45;12.80;;;6.32;;
64387;SDS011;50709;52.648;4.764;2022-07-01T03:53:10;14.80;;;6.20;;
64387;SDS011;50709;52.648;4.764;2022-07-01T03:55:54;11.95;;;6.63;;
64387;SDS011;50709;52.648;4.764;2022-07-01T03:58:19;14.35;;;6.45;;
64387;SDS011;50709;52.648;4.764;2022-07-01T04:00:45;14.10;;;7.10;;
64387;SDS011;50709;52.648;4.764;2022-07-01T04:03:10;15.45;;;7.10;;
64387;SDS011;50709;52.648;4.764;2022-07-01T04:05:36;11.48;;;7.00;;
64387;SDS011;50709;52.648;4.764;2022-07-01T04:08:03;13.75;;;7.40;;
64387;SDS011;50709;52.648;4.764;2022-07-01T04:10:30;10.10;;;7.03;;
64387;SDS011;50709;52.648;4.764;2022-07-01T04:13:00;13.15;;;7.07;;
64387;SDS011;50709;52.648;4.764;2022-07-01T04:15:26;14.35;;;7.80;;
64387;SDS011;50709;52.648;4.764;2022-07-01T04:17:52;15.48;;;7.60;;
64387;SDS011;50709;52.648;4.764;2022-07-01T04:20:19;13.60;;;7.57;;
64387;SDS011;50709;52.648;4.764;2022-07-01T04:22:44;16.58;;;7.80;;
64387;SDS011;50709;52.648;4.764;2022-07-01T04:25:09;13.07;;;6.60;;
64387;SDS011;50709;52.648;4.764;2022-07-01T04:27:35;14.52;;;7.03;;
64387;SDS011;50709;52.648;4.764;2022-07-01T04:30:00;17.08;;;7.82;;
64387;SDS011;50709;52.648;4.764;2022-07-01T04:32:27;12.75;;;7.72;;
64387;SDS011;50709;52.648;4.764;2022-07-01T04:34:53;16.23;;;7.82;;
64387;SDS011;50709;52.648;4.764;2022-07-01T04:37:21;12.90;;;6.88;;
64387;SDS011;50709;52.648;4.764;2022-07-01T04:39:47;15.10;;;6.82;;
64387;SDS011;50709;52.648;4.764;2022-07-01T04:42:12;12.15;;;6.32;;
64387;SDS011;50709;52.648;4.764;2022-07-01T04:44:40;10.95;;;5.63;;
64387;SDS011;50709;52.648;4.764;2022-07-01T04:47:05;10.73;;;5.70;;
64387;SDS011;50709;52.648;4.764;2022-07-01T04:49:31;17.83;;;4.93;;
64387;SDS011;50709;52.648;4.764;2022-07-01T04:51:56;10.43;;;4.90;;
64387;SDS011;50709;52.648;4.764;2022-07-01T04:54:22;9.25;;;3.70;;
64387;SDS011;50709;52.648;4.764;2022-07-01T04:56:48;10.98;;;3.78;;
64387;SDS011;50709;52.648;4.764;2022-07-01T04:59:15;11.48;;;3.17;;
64387;SDS011;50709;52.648;4.764;2022-07-01T05:01:41;11.90;;;3.40;;
64387;SDS011;50709;52.648;4.764;2022-07-01T05:04:07;7.30;;;3.53;;
64387;SDS011;50709;52.648;4.764;2022-07-01T05:06:33;10.30;;;3.13;;
64387;SDS011;50709;52.648;4.764;2022-07-01T05:08:59;7.05;;;3.38;;
64387;SDS011;50709;52.648;4.764;2022-07-01T05:11:25;13.75;;;3.78;;
64387;SDS011;50709;52.648;4.764;2022-07-01T05:13:50;6.60;;;3.50;;
64387;SDS011;50709;52.648;4.764;2022-07-01T05:16:15;8.32;;;3.00;;
64387;SDS011;50709;52.648;4.764;2022-07-01T05:18:43;9.75;;;3.47;;
64387;SDS011;50709;52.648;4.764;2022-07-01T05:21:27;11.20;;;3.15;;
64387;SDS011;50709;52.648;4.764;2022-07-01T05:24:12;7.72;;;3.72;;
64387;SDS011;50709;52.648;4.764;2022-07-01T05:26:37;7.55;;;3.67;;
64387;SDS011;50709;52.648;4.764;2022-07-01T05:29:03;12.57;;;3.85;;
64387;SDS011;50709;52.648;4.764;2022-07-01T05:31:28;10.40;;;3.53;;
64387;SDS011;50709;52.648;4.764;2022-07-01T05:33:53;8.35;;;3.00;;
64387;SDS011;50709;52.648;4.764;2022-07-01T05:36:19;9.30;;;3.13;;
64387;SDS011;50709;52.648;4.764;2022-07-01T05:38:48;8.65;;;2.78;;
64387;SDS011;50709;52.648;4.764;2022-07-01T05:41:13;7.75;;;3.00;;
64387;SDS011;50709;52.648;4.764;2022-07-01T05:43:38;8.32;;;3.53;;
64387;SDS011;50709;52.648;4.764;2022-07-01T05:46:04;7.32;;;3.28;;
64387;SDS011;50709;52.648;4.764;2022-07-01T05:48:29;6.68;;;2.70;;
64387;SDS011;50709;52.648;4.764;2022-07-01T05:50:55;8.32;;;3.05;;
64387;SDS011;50709;52.648;4.764;2022-07-01T05:53:20;6.97;;;2.80;;
64387;SDS011;50709;52.648;4.764;2022-07-01T05:55:46;10.07;;;2.92;;
64387;SDS011;50709;52.648;4.764;2022-07-01T05:58:11;8.07;;;3.00;;
64387;SDS011;50709;52.648;4.764;2022-07-01T06:00:41;10.10;;;3.88;;
64387;SDS011;50709;52.648;4.764;2022-07-01T06:03:07;7.65;;;3.00;;
64387;SDS011;50709;52.648;4.764;2022-07-01T06:05:36;8.98;;;3.08;;
64387;SDS011;50709;52.648;4.764;2022-07-01T06:08:02;12.75;;;4.20;;
64387;SDS011;50709;52.648;4.764;2022-07-01T06:10:28;8.00;;;3.00;;
64387;SDS011;50709;52.648;4.764;2022-07-01T06:12:53;7.70;;;2.90;;
64387;SDS011;50709;52.648;4.764;2022-07-01T06:15:19;10.10;;;2.90;;
64387;SDS011;50709;52.648;4.764;2022-07-01T06:17:44;10.10;;;2.92;;
64387;SDS011;50709;52.648;4.764;2022-07-01T06:20:10;12.60;;;3.33;;
64387;SDS011;50709;52.648;4.764;2022-07-01T06:22:35;6.78;;;3.10;;
64387;SDS011;50709;52.648;4.764;2022-07-01T06:25:00;12.98;;;3.42;;
64387;SDS011;50709;52.648;4.764;2022-07-01T06:27:27;5.65;;;2.83;;
64387;SDS011;50709;52.648;4.764;2022-07-01T06:29:56;11.07;;;3.25;;
64387;SDS011;50709;52.648;4.764;2022-07-01T06:32:21;9.13;;;3.17;;
64387;SDS011;50709;52.648;4.764;2022-07-01T06:34:46;9.50;;;3.40;;
64387;SDS011;50709;52.648;4.764;2022-07-01T06:37:13;8.15;;;3.10;;
64387;SDS011;50709;52.648;4.764;2022-07-01T06:39:38;15.90;;;3.60;;
64387;SDS011;50709;52.648;4.764;2022-07-01T06:42:04;9.82;;;3.47;;
64387;SDS011;50709;52.648;4.764;2022-07-01T06:44:30;10.50;;;3.25;;
64387;SDS011;50709;52.648;4.764;2022-07-01T06:46:55;10.65;;;3.50;;
64387;SDS011;50709;52.648;4.764;2022-07-01T06:49:20;10.18;;;3.60;;
64387;SDS011;50709;52.648;4.764;2022-07-01T06:51:46;8.40;;;2.83;;
64387;SDS011;50709;52.648;4.764;2022-07-01T06:54:11;11.02;;;3.28;;
64387;SDS011;50709;52.648;4.764;2022-07-01T06:56:37;9.85;;;3.00;;
64387;SDS011;50709;52.648;4.764;2022-07-01T06:59:02;7.45;;;2.92;;
64387;SDS011;50709;52.648;4.764;2022-07-01T07:01:27;7.30;;;3.10;;
64387;SDS011;50709;52.648;4.764;2022-07-01T07:03:53;7.50;;;3.15;;
64387;SDS011;50709;52.648;4.764;2022-07-01T07:06:19;6.90;;;2.90;;
64387;SDS011;50709;52.648;4.764;2022-07-01T07:08:45;7.97;;;2.95;;
64387;SDS011;50709;52.648;4.764;2022-07-01T07:11:10;6.72;;;2.83;;
64387;SDS011;50709;52.648;4.764;2022-07-01T07:13:36;7.30;;;2.75;;
64387;SDS011;50709;52.648;4.764;2022-07-01T07:16:02;8.43;;;2.53;;
64387;SDS011;50709;52.648;4.764;2022-07-01T07:18:27;4.78;;;2.63;;
64387;SDS011;50709;52.648;4.764;2022-07-01T07:20:53;7.70;;;2.45;;
64387;SDS011;50709;52.648;4.764;2022-07-01T07:23:19;10.95;;;2.60;;
64387;SDS011;50709;52.648;4.764;2022-07-01T07:25:44;5.25;;;2.80;;
64387;SDS011;50709;52.648;4.764;2022-07-01T07:28:09;8.30;;;3.42;;
64387;SDS011;50709;52.648;4.764;2022-07-01T07:30:35;7.95;;;2.40;;
64387;SDS011;50709;52.648;4.764;2022-07-01T07:33:00;8.98;;;3.53;;
64387;SDS011;50709;52.648;4.764;2022-07-01T07:35:26;8.52;;;3.20;;
64387;SDS011;50709;52.648;4.764;2022-07-01T07:37:51;9.23;;;2.72;;
64387;SDS011;50709;52.648;4.764;2022-07-01T07:40:17;5.65;;;3.10;;
64387;SDS011;50709;52.648;4.764;2022-07-01T07:42:44;7.22;;;2.75;;
64387;SDS011;50709;52.648;4.764;2022-07-01T07:45:11;6.57;;;2.50;;
64387;SDS011;50709;52.648;4.764;2022-07-01T07:47:40;5.43;;;2.63;;
64387;SDS011;50709;52.648;4.764;2022-07-01T07:50:10;6.53;;;2.50;;
64387;SDS011;50709;52.648;4.764;2022-07-01T07:52:36;8.98;;;2.60;;
64387;SDS011;50709;52.648;4.764;2022-07-01T07:55:02;4.65;;;2.60;;
64387;SDS011;50709;52.648;4.764;2022-07-01T07:57:28;5.13;;;2.50;;
64387;SDS011;50709;52.648;4.764;2022-07-01T07:59:53;5.38;;;2.30;;
64387;SDS011;50709;52.648;4.764;2022-07-01T08:02:19;7.95;;;2.60;;
64387;SDS011;50709;52.648;4.764;2022-07-01T08:04:44;4.70;;;2.20;;
64387;SDS011;50709;52.648;4.764;2022-07-01T08:07:10;7.80;;;2.60;;
64387;SDS011;50709;52.648;4.764;2022-07-01T08:09:35;6.68;;;2.53;;
64387;SDS011;50709;52.648;4.764;2022-07-01T08:12:01;5.57;;;2.42;;
64387;SDS011;50709;52.648;4.764;2022-07-01T08:14:27;8.13;;;2.92;;
64387;SDS011;50709;52.648;4.764;2022-07-01T08:16:53;9.13;;;2.58;;
64387;SDS011;50709;52.648;4.764;2022-07-01T08:19:18;8.68;;;2.90;;
64387;SDS011;50709;52.648;4.764;2022-07-01T08:21:44;4.88;;;2.28;;
64387;SDS011;50709;52.648;4.764;2022-07-01T08:24:10;6.22;;;2.78;;
64387;SDS011;50709;52.648;4.764;2022-07-01T08:26:35;7.90;;;2.63;;
64387;SDS011;50709;52.648;4.764;2022-07-01T08:29:00;9.15;;;3.47;;
64387;SDS011;50709;52.648;4.764;2022-07-01T08:31:26;5.65;;;2.92;;
64387;SDS011;50709;52.648;4.764;2022-07-01T08:33:51;5.45;;;2.75;;
64387;SDS011;50709;52.648;4.764;2022-07-01T08:36:17;6.18;;;2.63;;
64387;SDS011;50709;52.648;4.764;2022-07-01T08:38:42;7.50;;;2.65;;
64387;SDS011;50709;52.648;4.764;2022-07-01T08:41:07;8.52;;;2.40;;
64387;SDS011;50709;52.648;4.764;2022-07-01T08:43:33;4.82;;;2.47;;
64387;SDS011;50709;52.648;4.764;2022-07-01T08:46:00;5.90;;;2.60;;
64387;SDS011;50709;52.648;4.764;2022-07-01T08:48:29;8.27;;;3.65;;
64387;SDS011;50709;52.648;4.764;2022-07-01T08:50:55;11.18;;;2.90;;
64387;SDS011;50709;52.648;4.764;2022-07-01T08:53:20;5.88;;;2.50;;
64387;SDS011;50709;52.648;4.764;2022-07-01T08:55:46;5.80;;;2.60;;
64387;SDS011;50709;52.648;4.764;2022-07-01T08:58:30;6.13;;;2.40;;
64387;SDS011;50709;52.648;4.764;2022-07-01T09:03:42;6.18;;;2.55;;
64387;SDS011;50709;52.648;4.764;2022-07-01T09:06:13;7.03;;;2.28;;
64387;SDS011;50709;52.648;4.764;2022-07-01T09:08:43;6.95;;;2.30;;
64387;SDS011;50709;52.648;4.764;2022-07-01T09:11:17;4.03;;;1.90;;
64387;SDS011;50709;52.648;4.764;2022-07-01T09:13:44;5.68;;;2.10;;
64387;SDS011;50709;52.648;4.764;2022-07-01T09:16:14;6.20;;;2.55;;
64387;SDS011;50709;52.648;4.764;2022-07-01T09:19:00;8.65;;;3.17;;
64387;SDS011;50709;52.648;4.764;2022-07-01T09:21:30;7.88;;;2.53;;
64387;SDS011;50709;52.648;4.764;2022-07-01T09:23:56;5.35;;;2.75;;
64387;SDS011;50709;52.648;4.764;2022-07-01T09:26:23;5.53;;;2.30;;
64387;SDS011;50709;52.648;4.764;2022-07-01T09:28:54;5.70;;;2.47;;
64387;SDS011;50709;52.648;4.764;2022-07-01T09:31:21;8.10;;;2.85;;
64387;SDS011;50709;52.648;4.764;2022-07-01T09:34:01;11.95;;;3.85;;
64387;SDS011;50709;52.648;4.764;2022-07-01T09:38:56;7.45;;;2.47;;
64387;SDS011;50709;52.648;4.764;2022-07-01T09:41:22;7.10;;;2.42;;
64387;SDS011;50709;52.648;4.764;2022-07-01T09:43:48;9.02;;;2.60;;
64387;SDS011;50709;52.648;4.764;2022-07-01T09:46:13;18.55;;;7.28;;
64387;SDS011;50709;52.648;4.764;2022-07-01T09:51:05;10.43;;;3.63;;
64387;SDS011;50709;52.648;4.764;2022-07-01T09:53:32;8.30;;;3.20;;
64387;SDS011;50709;52.648;4.764;2022-07-01T09:55:57;6.55;;;2.60;;
64387;SDS011;50709;52.648;4.764;2022-07-01T09:58:23;9.13;;;2.42;;
64387;SDS011;50709;52.648;4.764;2022-07-01T10:00:49;5.65;;;2.28;;
64387;SDS011;50709;52.648;4.764;2022-07-01T10:03:17;9.05;;;2.78;;
64387;SDS011;50709;52.648;4.764;2022-07-01T10:05:45;6.70;;;3.08;;
64387;SDS011;50709;52.648;4.764;2022-07-01T10:14:13;5.07;;;2.50;;
64387;SDS011;50709;52.648;4.764;2022-07-01T10:16:40;9.80;;;2.50;;
64387;SDS011;50709;52.648;4.764;2022-07-01T10:21:47;6.50;;;2.92;;
64387;SDS011;50709;52.648;4.764;2022-07-01T10:24:13;4.95;;;2.40;;
64387;SDS011;50709;52.648;4.764;2022-07-01T10:26:40;8.45;;;2.33;;
64387;SDS011;50709;52.648;4.764;2022-07-01T10:32:07;7.93;;;2.28;;
64387;SDS011;50709;52.648;4.764;2022-07-01T10:34:35;7.20;;;2.50;;
64387;SDS011;50709;52.648;4.764;2022-07-01T10:37:07;6.38;;;2.88;;
64387;SDS011;50709;52.648;4.764;2022-07-01T10:40:16;10.77;;;2.83;;
64387;SDS011;50709;52.648;4.764;2022-07-01T10:42:27;9.65;;;3.42;;
64387;SDS011;50709;52.648;4.764;2022-07-01T10:45:00;4.35;;;1.83;;
64387;SDS011;50709;52.648;4.764;2022-07-01T10:47:33;9.95;;;4.15;;
64387;SDS011;50709;52.648;4.764;2022-07-01T10:50:19;7.35;;;2.33;;
64387;SDS011;50709;52.648;4.764;2022-07-01T10:55:52;7.55;;;2.40;;
64387;SDS011;50709;52.648;4.764;2022-07-01T10:58:18;12.00;;;3.13;;
64387;SDS011;50709;52.648;4.764;2022-07-01T11:01:00;7.68;;;2.80;;
64387;SDS011;50709;52.648;4.764;2022-07-01T11:03:25;6.85;;;2.25;;
64387;SDS011;50709;52.648;4.764;2022-07-01T11:05:52;5.50;;;3.20;;
64387;SDS011;50709;52.648;4.764;2022-07-01T11:08:20;10.90;;;3.33;;
64387;SDS011;50709;52.648;4.764;2022-07-01T11:10:49;8.55;;;2.50;;
64387;SDS011;50709;52.648;4.764;2022-07-01T11:13:15;5.13;;;2.25;;
64387;SDS011;50709;52.648;4.764;2022-07-01T11:15:42;11.98;;;3.17;;
64387;SDS011;50709;52.648;4.764;2022-07-01T11:18:10;11.23;;;2.47;;
64387;SDS011;50709;52.648;4.764;2022-07-01T11:20:36;10.80;;;2.40;;
64387;SDS011;50709;52.648;4.764;2022-07-01T11:23:01;6.85;;;2.38;;
64387;SDS011;50709;52.648;4.764;2022-07-01T11:25:27;7.07;;;2.72;;
64387;SDS011;50709;52.648;4.764;2022-07-01T11:27:54;6.13;;;2.72;;
64387;SDS011;50709;52.648;4.764;2022-07-01T11:30:20;5.72;;;2.30;;
64387;SDS011;50709;52.648;4.764;2022-07-01T11:32:48;8.85;;;2.65;;
64387;SDS011;50709;52.648;4.764;2022-07-01T11:35:19;8.38;;;2.83;;
64387;SDS011;50709;52.648;4.764;2022-07-01T11:38:09;6.63;;;2.42;;
64387;SDS011;50709;52.648;4.764;2022-07-01T11:40:54;9.50;;;2.60;;
64387;SDS011;50709;52.648;4.764;2022-07-01T11:43:21;8.57;;;2.45;;
64387;SDS011;50709;52.648;4.764;2022-07-01T11:45:48;6.47;;;2.70;;
64387;SDS011;50709;52.648;4.764;2022-07-01T11:48:27;11.57;;;2.55;;
64387;SDS011;50709;52.648;4.764;2022-07-01T11:50:57;7.78;;;3.10;;
64387;SDS011;50709;52.648;4.764;2022-07-01T11:53:24;9.45;;;3.08;;
64387;SDS011;50709;52.648;4.764;2022-07-01T11:55:49;10.73;;;2.45;;
64387;SDS011;50709;52.648;4.764;2022-07-01T11:58:14;7.03;;;3.00;;
64387;SDS011;50709;52.648;4.764;2022-07-01T12:00:40;7.47;;;3.15;;
64387;SDS011;50709;52.648;4.764;2022-07-01T12:03:05;6.68;;;2.88;;
64387;SDS011;50709;52.648;4.764;2022-07-01T12:05:32;10.88;;;3.33;;
64387;SDS011;50709;52.648;4.764;2022-07-01T12:07:59;8.05;;;2.78;;
64387;SDS011;50709;52.648;4.764;2022-07-01T12:10:25;9.15;;;2.63;;
64387;SDS011;50709;52.648;4.764;2022-07-01T12:12:51;11.88;;;3.13;;
64387;SDS011;50709;52.648;4.764;2022-07-01T12:15:17;8.35;;;3.00;;
64387;SDS011;50709;52.648;4.764;2022-07-01T12:17:42;8.40;;;3.38;;
64387;SDS011;50709;52.648;4.764;2022-07-01T12:20:08;9.90;;;3.00;;
64387;SDS011;50709;52.648;4.764;2022-07-01T12:22:34;12.35;;;3.45;;
64387;SDS011;50709;52.648;4.764;2022-07-01T12:25:06;9.68;;;2.92;;
64387;SDS011;50709;52.648;4.764;2022-07-01T12:27:34;11.45;;;3.45;;
64387;SDS011;50709;52.648;4.764;2022-07-01T12:30:00;8.77;;;3.40;;
64387;SDS011;50709;52.648;4.764;2022-07-01T12:32:27;6.10;;;2.40;;
64387;SDS011;50709;52.648;4.764;2022-07-01T12:35:03;11.15;;;2.92;;
64387;SDS011;50709;52.648;4.764;2022-07-01T12:37:34;7.38;;;2.60;;
64387;SDS011;50709;52.648;4.764;2022-07-01T12:40:04;7.70;;;2.10;;
64387;SDS011;50709;52.648;4.764;2022-07-01T12:42:37;5.57;;;2.45;;
64387;SDS011;50709;52.648;4.764;2022-07-01T12:45:12;5.90;;;2.38;;
64387;SDS011;50709;52.648;4.764;2022-07-01T12:52:42;8.63;;;2.22;;
64387;SDS011;50709;52.648;4.764;2022-07-01T12:55:20;7.13;;;2.58;;
64387;SDS011;50709;52.648;4.764;2022-07-01T12:57:47;8.30;;;2.40;;
64387;SDS011;50709;52.648;4.764;2022-07-01T13:00:13;8.73;;;2.67;;
64387;SDS011;50709;52.648;4.764;2022-07-01T13:02:40;8.32;;;2.78;;
64387;SDS011;50709;52.648;4.764;2022-07-01T13:05:05;11.50;;;2.55;;
64387;SDS011;50709;52.648;4.764;2022-07-01T13:07:31;6.75;;;2.95;;
64387;SDS011;50709;52.648;4.764;2022-07-01T13:09:56;6.40;;;2.50;;
64387;SDS011;50709;52.648;4.764;2022-07-01T13:12:22;5.30;;;2.15;;
64387;SDS011;50709;52.648;4.764;2022-07-01T13:14:47;9.43;;;3.03;;
64387;SDS011;50709;52.648;4.764;2022-07-01T13:17:12;7.30;;;2.13;;
64387;SDS011;50709;52.648;4.764;2022-07-01T13:19:38;6.75;;;2.17;;
64387;SDS011;50709;52.648;4.764;2022-07-01T13:22:03;8.35;;;2.10;;
64387;SDS011;50709;52.648;4.764;2022-07-01T13:24:29;6.13;;;2.17;;
64387;SDS011;50709;52.648;4.764;2022-07-01T13:26:54;5.45;;;2.25;;
64387;SDS011;50709;52.648;4.764;2022-07-01T13:29:20;7.07;;;2.50;;
64387;SDS011;50709;52.648;4.764;2022-07-01T13:31:46;6.30;;;2.35;;
64387;SDS011;50709;52.648;4.764;2022-07-01T13:34:11;5.85;;;2.25;;
64387;SDS011;50709;52.648;4.764;2022-07-01T13:36:37;4.95;;;2.10;;
64387;SDS011;50709;52.648;4.764;2022-07-01T13:39:02;7.68;;;2.50;;
64387;SDS011;50709;52.648;4.764;2022-07-01T13:41:28;5.22;;;2.10;;
64387;SDS011;50709;52.648;4.764;2022-07-01T13:43:53;5.20;;;2.30;;
64387;SDS011;50709;52.648;4.764;2022-07-01T13:46:18;6.28;;;2.20;;
64387;SDS011;50709;52.648;4.764;2022-07-01T13:48:44;5.95;;;2.67;;
64387;SDS011;50709;52.648;4.764;2022-07-01T13:51:10;5.95;;;2.22;;
64387;SDS011;50709;52.648;4.764;2022-07-01T13:53:35;6.60;;;2.20;;
64387;SDS011;50709;52.648;4.764;2022-07-01T13:56:00;5.22;;;2.25;;
64387;SDS011;50709;52.648;4.764;2022-07-01T13:58:26;8.60;;;3.03;;
64387;SDS011;50709;52.648;4.764;2022-07-01T14:00:51;5.32;;;2.20;;
64387;SDS011;50709;52.648;4.764;2022-07-01T14:03:17;5.95;;;2.53;;
64387;SDS011;50709;52.648;4.764;2022-07-01T14:05:42;4.22;;;2.20;;
64387;SDS011;50709;52.648;4.764;2022-07-01T14:08:08;9.30;;;2.38;;
64387;SDS011;50709;52.648;4.764;2022-07-01T14:10:33;7.82;;;2.20;;
64387;SDS011;50709;52.648;4.764;2022-07-01T14:13:01;5.40;;;2.10;;
64387;SDS011;50709;52.648;4.764;2022-07-01T14:15:27;7.55;;;2.40;;
64387;SDS011;50709;52.648;4.764;2022-07-01T14:17:52;7.50;;;2.20;;
64387;SDS011;50709;52.648;4.764;2022-07-01T14:20:17;4.93;;;2.20;;
64387;SDS011;50709;52.648;4.764;2022-07-01T14:22:43;5.72;;;2.30;;
64387;SDS011;50709;52.648;4.764;2022-07-01T14:25:08;6.75;;;2.20;;
64387;SDS011;50709;52.648;4.764;2022-07-01T14:27:33;3.75;;;2.20;;
64387;SDS011;50709;52.648;4.764;2022-07-01T14:29:59;4.88;;;2.20;;
64387;SDS011;50709;52.648;4.764;2022-07-01T14:32:24;6.32;;;2.55;;
64387;SDS011;50709;52.648;4.764;2022-07-01T14:34:54;8.77;;;3.22;;
64387;SDS011;50709;52.648;4.764;2022-07-01T14:37:20;4.85;;;2.70;;
64387;SDS011;50709;52.648;4.764;2022-07-01T14:39:46;4.22;;;2.50;;
64387;SDS011;50709;52.648;4.764;2022-07-01T14:42:11;5.15;;;2.40;;
64387;SDS011;50709;52.648;4.764;2022-07-01T14:44:37;5.35;;;1.90;;
64387;SDS011;50709;52.648;4.764;2022-07-01T14:47:03;5.78;;;2.30;;
64387;SDS011;50709;52.648;4.764;2022-07-01T14:49:29;6.38;;;2.38;;
64387;SDS011;50709;52.648;4.764;2022-07-01T14:51:54;8.18;;;2.50;;
64387;SDS011;50709;52.648;4.764;2022-07-01T14:54:20;5.90;;;2.40;;
64387;SDS011;50709;52.648;4.764;2022-07-01T14:56:45;8.25;;;2.30;;
64387;SDS011;50709;52.648;4.764;2022-07-01T14:59:11;6.72;;;2.20;;
64387;SDS011;50709;52.648;4.764;2022-07-01T15:01:36;4.35;;;2.10;;
64387;SDS011;50709;52.648;4.764;2022-07-01T15:04:02;4.68;;;1.92;;
64387;SDS011;50709;52.648;4.764;2022-07-01T15:06:27;5.03;;;2.30;;
64387;SDS011;50709;52.648;4.764;2022-07-01T15:08:53;4.22;;;2.05;;
64387;SDS011;50709;52.648;4.764;2022-07-01T15:11:18;6.25;;;2.10;;
64387;SDS011;50709;52.648;4.764;2022-07-01T15:13:45;3.72;;;2.20;;